Time;durP1;ratioP1;P1;durP2;ratioP2;P2;SDS_P1;SDS_P2;PMS_P1;PMS_P2;Temp;Humidity;BMP_temperature;BMP_pressure;BME280_temperature;BME280_humidity;BME280_pressure;Samples;Min_cycle;Max_cycle;Signal;HPM_P1;HPM_P2
2022/03/04 00:02:01;;;;;;;25.35;18.08;;;;;;;3.53;98.47;100431.34;4972963;28;20038;-77
2022/03/04 00:04:26;;;;;;;21.95;16.98;;;;;;;3.43;97.85;100394.94;4991685;28;20193;-77
2022/03/04 00:06:55;;;;;;;23.15;17.33;;;;;;;3.61;98.28;100434.41;4973484;28;20188;-78
2022/03/04 00:09:21;;;;;;;26.60;17.85;;;;;;;3.65;98.74;100425.28;4991108;28;20110;-77
2022/03/04 00:11:50;;;;;;;24.35;17.27;;;;;;;3.75;98.82;100440.41;4991698;28;20435;-77
2022/03/04 00:14:15;;;;;;;25.17;16.67;;;;;;;3.83;98.69;100439.22;4973678;28;20092;-77
2022/03/04 00:16:41;;;;;;;24.60;16.13;;;;;;;3.85;98.55;100430.00;4973396;28;20380;-77
2022/03/04 00:19:07;;;;;;;23.33;16.35;;;;;;;3.86;97.86;100433.41;4977756;28;20038;-78
2022/03/04 00:21:54;;;;;;;25.17;17.17;;;;;;;3.80;98.07;100426.25;4980947;28;20018;-75
2022/03/04 00:24:22;;;;;;;26.98;16.80;;;;;;;3.67;98.30;100413.50;4977128;28;20079;-77
2022/03/04 00:26:49;;;;;;;24.50;17.30;;;;;;;3.78;99.15;100427.81;4971169;28;20027;-77
2022/03/04 00:29:15;;;;;;;28.73;17.52;;;;;;;3.52;99.09;100392.97;4954805;28;20492;-77
2022/03/04 00:31:41;;;;;;;26.63;18.15;;;;;;;3.79;99.95;100428.69;4974441;28;20026;-82
2022/03/04 00:34:07;;;;;;;25.42;17.52;;;;;;;3.77;100.00;100427.72;4965196;28;20034;-77
2022/03/04 00:36:34;;;;;;;24.52;17.27;;;;;;;3.69;99.78;100414.50;4933719;29;20075;-75
2022/03/04 00:39:00;;;;;;;23.77;17.58;;;;;;;3.73;99.61;100412.19;4934604;29;20047;-77
2022/03/04 00:41:25;;;;;;;23.08;17.33;;;;;;;3.67;99.36;100399.06;4934279;29;20051;-78
2022/03/04 00:43:51;;;;;;;24.10;16.80;;;;;;;3.79;98.97;100408.25;4934595;29;20498;-75
2022/03/04 00:46:18;;;;;;;22.75;17.13;;;;;;;3.81;99.20;100407.56;4934717;29;20048;-74
2022/03/04 00:48:45;;;;;;;24.10;17.70;;;;;;;3.86;99.23;100413.88;4947333;29;20098;-76
2022/03/04 00:51:12;;;;;;;28.25;18.38;;;;;;;3.75;98.46;100402.13;4921016;29;20465;-77
2022/03/04 00:53:38;;;;;;;28.05;18.45;;;;;;;3.79;98.63;100409.16;4953551;29;20046;-76
2022/03/04 00:56:06;;;;;;;25.13;17.23;;;;;;;3.63;98.30;100371.56;4953536;29;20043;-77
2022/03/04 00:58:31;;;;;;;24.50;17.70;;;;;;;3.78;98.20;100396.31;4953333;29;20050;-76
2022/03/04 01:00:57;;;;;;;25.45;17.77;;;;;;;3.87;98.22;100407.09;4937264;29;20569;-76
2022/03/04 01:03:22;;;;;;;26.73;18.15;;;;;;;3.87;97.83;100394.31;4952534;29;20050;-77
2022/03/04 01:05:48;;;;;;;23.98;18.05;;;;;;;3.84;97.82;100405.22;4951932;28;20521;-78
2022/03/04 01:08:13;;;;;;;24.25;17.23;;;;;;;3.89;98.32;100406.41;4977948;28;20045;-78
2022/03/04 01:10:39;;;;;;;25.88;18.45;;;;;;;3.83;98.99;100402.59;4976209;28;20030;-77
2022/03/04 01:13:04;;;;;;;23.33;17.20;;;;;;;3.53;98.13;100353.91;4994237;28;20030;-77
2022/03/04 01:15:30;;;;;;;25.80;17.70;;;;;;;3.73;98.20;100394.31;4976044;28;20027;-76
2022/03/04 01:17:55;;;;;;;25.02;17.58;;;;;;;3.68;98.33;100390.59;4994405;28;20023;-76
2022/03/04 01:20:22;;;;;;;28.90;18.73;;;;;;;3.32;98.40;100317.72;4994119;28;20377;-77
2022/03/04 01:22:48;;;;;;;25.35;17.40;;;;;;;3.79;98.85;100405.72;4994061;28;20023;-80
2022/03/04 01:25:14;;;;;;;25.92;17.10;;;;;;;3.44;99.20;100358.41;4973330;28;20042;-79
2022/03/04 01:27:39;;;;;;;25.00;17.88;;;;;;;3.20;99.39;100330.56;4975197;28;20026;-79
2022/03/04 01:30:07;;;;;;;27.00;19.02;;;;;;;3.53;99.21;100404.97;4954204;28;20033;-77
2022/03/04 01:32:32;;;;;;;28.77;19.73;;;;;;;3.35;100.00;100389.34;4974705;28;20458;-80
2022/03/04 01:34:58;;;;;;;28.25;19.40;;;;;;;3.38;100.00;100404.84;4974638;28;20105;-75
2022/03/04 01:37:23;;;;;;;25.60;18.55;;;;;;;3.28;100.00;100390.63;4975129;28;20026;-76
2022/03/04 01:39:49;;;;;;;29.15;20.13;;;;;;;3.31;100.00;100402.69;4992242;28;20386;-75
2022/03/04 01:42:15;;;;;;;26.60;18.70;;;;;;;3.13;100.00;100389.59;4992318;28;20022;-76
2022/03/04 01:44:40;;;;;;;26.33;18.60;;;;;;;2.97;100.00;100390.28;4973138;28;20089;-76
2022/03/04 01:47:06;;;;;;;26.85;18.95;;;;;;;3.00;100.00;100385.38;4975336;28;20117;-76
2022/03/04 01:49:32;;;;;;;26.73;18.70;;;;;;;3.01;100.00;100384.59;4992234;28;20018;-77
2022/03/04 01:51:58;;;;;;;29.77;19.95;;;;;;;2.88;100.00;100359.97;4992605;28;20026;-77
2022/03/04 01:54:24;;;;;;;29.98;21.02;;;;;;;2.97;100.00;100347.81;4991638;28;20037;-76
2022/03/04 01:56:50;;;;;;;29.40;20.40;;;;;;;3.18;100.00;100363.63;4993219;28;20057;-74
2022/03/04 01:59:16;;;;;;;27.02;19.02;;;;;;;3.33;100.00;100373.94;4993663;28;20062;-77
2022/03/04 02:01:42;;;;;;;28.77;19.83;;;;;;;3.35;100.00;100367.28;4992447;28;20034;-76
2022/03/04 02:04:07;;;;;;;27.92;18.95;;;;;;;3.40;100.00;100365.91;4991488;28;20034;-77
2022/03/04 02:06:33;;;;;;;26.02;19.23;;;;;;;3.26;100.00;100340.28;4991386;28;20085;-77
2022/03/04 02:08:59;;;;;;;25.00;18.52;;;;;;;3.48;100.00;100373.16;4991712;28;20022;-77
2022/03/04 02:11:24;;;;;;;27.95;19.13;;;;;;;3.23;100.00;100338.41;4991790;28;20023;-76
2022/03/04 02:13:49;;;;;;;24.58;18.73;;;;;;;3.40;100.00;100375.19;4990985;28;20033;-77
2022/03/04 02:16:22;;;;;;;27.33;18.30;;;;;;;3.35;100.00;100362.16;4992911;28;20026;-76
2022/03/04 02:18:48;;;;;;;25.17;18.33;;;;;;;3.35;100.00;100364.72;4992874;28;20405;-75
2022/03/04 02:21:14;;;;;;;24.75;18.20;;;;;;;3.39;100.00;100369.22;4976421;28;20030;-77
2022/03/04 02:23:40;;;;;;;28.77;19.08;;;;;;;3.37;100.00;100365.69;4992328;28;20457;-77
2022/03/04 02:26:06;;;;;;;28.20;18.83;;;;;;;3.38;100.00;100366.59;4992389;28;20392;-75
2022/03/04 02:28:31;;;;;;;26.10;19.05;;;;;;;3.34;100.00;100354.38;4973910;28;20026;-75
2022/03/04 02:30:57;;;;;;;26.77;18.95;;;;;;;3.29;100.00;100350.66;4990245;28;20456;-75
2022/03/04 02:33:22;;;;;;;33.33;22.23;;;;;;;3.33;100.00;100361.19;4990423;28;20034;-76
2022/03/04 02:35:48;;;;;;;38.20;26.05;;;;;;;3.10;100.00;100346.06;4973060;28;20031;-75
2022/03/04 02:38:13;;;;;;;35.83;23.13;;;;;;;3.16;100.00;100360.06;4972624;28;20101;-76
2022/03/04 02:40:39;;;;;;;53.03;33.42;;;;;;;3.05;100.00;100344.09;4972422;28;20030;-77
2022/03/04 02:43:05;;;;;;;45.88;27.02;;;;;;;2.79;100.00;100313.44;4992816;28;20030;-76
2022/03/04 02:45:31;;;;;;;43.38;28.48;;;;;;;3.12;100.00;100362.34;4991878;28;20030;-75
2022/03/04 02:47:56;;;;;;;38.17;24.63;;;;;;;2.94;100.00;100331.41;4989700;28;20476;-77
2022/03/04 02:50:22;;;;;;;44.88;28.77;;;;;;;3.12;100.00;100370.88;4988596;28;20025;-79
2022/03/04 02:52:48;;;;;;;46.53;31.20;;;;;;;2.99;100.00;100320.75;4990115;28;20393;-79
2022/03/04 02:55:13;;;;;;;31.02;23.10;;;;;;;3.05;100.00;100351.75;4990528;28;20023;-76
2022/03/04 02:57:42;;;;;;;33.95;24.80;;;;;;;3.11;100.00;100366.56;4991699;28;20591;-76
2022/03/04 03:00:08;;;;;;;29.67;20.85;;;;;;;3.04;100.00;100360.19;4973992;28;20099;-75
2022/03/04 03:02:34;;;;;;;30.48;21.17;;;;;;;2.95;100.00;100341.72;4950311;29;20035;-76
2022/03/04 03:04:59;;;;;;;27.45;19.95;;;;;;;3.06;100.00;100357.72;4949425;29;20074;-77
2022/03/04 03:07:25;;;;;;;28.77;20.40;;;;;;;3.06;100.00;100339.88;4950897;29;20047;-75
2022/03/04 03:09:52;;;;;;;29.83;21.25;;;;;;;3.07;100.00;100352.72;4950657;29;20036;-78
2022/03/04 03:12:17;;;;;;;26.55;20.33;;;;;;;3.16;100.00;100375.38;4950400;28;20043;-80
2022/03/04 03:14:43;;;;;;;27.67;20.65;;;;;;;2.97;100.00;100332.50;4934142;29;20023;-80
2022/03/04 03:17:08;;;;;;;27.52;20.20;;;;;;;3.02;100.00;100363.41;4949751;28;20051;-78
2022/03/04 03:19:34;;;;;;;31.20;21.30;;;;;;;2.91;100.00;100355.06;4934067;29;20035;-74
2022/03/04 03:21:59;;;;;;;30.38;21.30;;;;;;;2.79;100.00;100347.50;4950327;29;20043;-83
2022/03/04 03:24:25;;;;;;;30.20;20.98;;;;;;;2.82;100.00;100344.25;4949204;29;20026;-80
2022/03/04 03:26:50;;;;;;;30.90;20.75;;;;;;;2.96;100.00;100368.97;4949374;29;20035;-77
2022/03/04 03:29:15;;;;;;;27.83;20.58;;;;;;;2.96;100.00;100371.53;4949140;29;20470;-75
2022/03/04 03:31:41;;;;;;;29.60;21.03;;;;;;;2.66;100.00;100335.59;4950411;29;20031;-75
2022/03/04 03:34:06;;;;;;;30.23;20.70;;;;;;;2.86;100.00;100367.50;4980439;28;20068;-75
2022/03/04 03:36:32;;;;;;;28.95;22.02;;;;;;;2.86;100.00;100356.41;4991059;28;20154;-78
2022/03/04 03:38:57;;;;;;;29.27;20.60;;;;;;;2.86;100.00;100364.06;4991154;28;20381;-77
2022/03/04 03:41:23;;;;;;;28.50;21.03;;;;;;;2.88;100.00;100373.59;4990784;28;20069;-76
2022/03/04 03:43:49;;;;;;;29.43;20.97;;;;;;;2.91;100.00;100362.69;4990623;28;20031;-75
2022/03/04 03:46:14;;;;;;;28.80;20.00;;;;;;;2.64;100.00;100374.50;4973395;28;20026;-76
2022/03/04 03:48:40;;;;;;;29.57;20.00;;;;;;;2.35;100.00;100364.09;4989772;28;20026;-75
2022/03/04 03:51:06;;;;;;;33.77;21.57;;;;;;;2.33;100.00;100375.88;4991401;28;20037;-75
2022/03/04 03:53:32;;;;;;;30.43;22.17;;;;;;;2.46;100.00;100375.03;4990388;28;20026;-75
2022/03/04 03:55:57;;;;;;;31.50;21.43;;;;;;;2.15;100.00;100374.59;4991133;28;20100;-74
2022/03/04 03:58:23;;;;;;;36.40;22.47;;;;;;;2.08;100.00;100373.28;4991873;28;20030;-77
2022/03/04 04:00:49;;;;;;;38.50;21.60;;;;;;;2.00;100.00;100379.50;4990409;28;20380;-77
2022/03/04 04:03:15;;;;;;;37.80;26.40;;;;;;;1.57;100.00;100369.72;4991674;28;20465;-76
2022/03/04 04:05:40;;;;;;;41.53;27.03;;;;;;;1.44;100.00;100329.81;4988841;28;20030;-75
2022/03/04 04:08:06;;;;;;;37.50;27.00;;;;;;;1.78;100.00;100370.34;4990459;28;20034;-75
2022/03/04 04:10:31;;;;;;;37.47;25.57;;;;;;;1.30;100.00;100295.78;4991117;28;20026;-77
2022/03/04 04:12:57;;;;;;;36.27;24.40;;;;;;;1.74;100.00;100363.28;4990874;28;20088;-76
2022/03/04 04:15:22;;;;;;;33.90;23.23;;;;;;;1.85;100.00;100366.59;4991216;28;20030;-76
2022/03/04 04:17:48;;;;;;;35.00;23.43;;;;;;;1.76;100.00;100357.53;4991656;28;20092;-74
2022/03/04 04:20:13;;;;;;;32.53;22.13;;;;;;;1.51;100.00;100326.03;4989874;28;20030;-74
2022/03/04 04:22:39;;;;;;;42.20;23.70;;;;;;;1.70;100.00;100359.63;4989247;28;20062;-76
2022/03/04 04:25:04;;;;;;;47.40;26.20;;;;;;;1.87;100.00;100382.84;4991427;28;21144;-76
2022/03/04 04:27:30;;;;;;;37.87;24.40;;;;;;;1.92;100.00;100386.63;5007907;28;20049;-77
2022/03/04 04:29:55;;;;;;;39.80;25.00;;;;;;;1.89;100.00;100399.13;4992344;28;20030;-76
2022/03/04 04:32:21;;;;;;;37.90;24.77;;;;;;;1.69;100.00;100374.81;5009180;28;20026;-76
2022/03/04 04:34:46;;;;;;;44.50;25.90;;;;;;;1.68;100.00;100396.81;4991242;28;20029;-76
2022/03/04 04:37:12;;;;;;;35.47;23.40;;;;;;;1.42;100.00;100369.50;5002633;28;20030;-77
2022/03/04 04:39:37;;;;;;;37.97;25.27;;;;;;;1.75;100.00;100408.34;4990103;28;20042;-72
2022/03/04 04:42:03;;;;;;;36.67;24.83;;;;;;;1.56;100.00;100388.34;4991015;28;20030;-77
2022/03/04 04:44:29;;;;;;;40.27;26.87;;;;;;;1.48;100.00;100397.94;4988913;28;20105;-76
2022/03/04 04:46:54;;;;;;;38.73;26.23;;;;;;;1.52;100.00;100401.59;4987252;28;20026;-81
2022/03/04 04:49:20;;;;;;;44.03;28.60;;;;;;;1.55;100.00;100410.34;5006913;28;20030;-79
2022/03/04 04:51:45;;;;;;;45.07;29.70;;;;;;;1.33;100.00;100377.38;5008992;28;20033;-80
2022/03/04 04:54:10;;;;;;;59.90;36.63;;;;;;;1.52;100.00;100396.50;4991844;28;20117;-79
2022/03/04 04:56:36;;;;;;;43.27;29.47;;;;;;;1.65;100.00;100406.78;5009863;28;20080;-78
2022/03/04 04:59:01;;;;;;;38.40;27.13;;;;;;;1.45;100.00;100367.19;5009421;28;20022;-78
2022/03/04 05:01:27;;;;;;;40.80;24.80;;;;;;;1.71;100.00;100411.44;5010316;28;20037;-78
2022/03/04 05:03:52;;;;;;;38.10;26.23;;;;;;;1.58;100.00;100420.75;4992672;28;20457;-78
2022/03/04 05:06:18;;;;;;;48.27;28.83;;;;;;;1.62;100.00;100409.13;4992392;28;20537;-78
2022/03/04 05:08:43;;;;;;;46.07;28.00;;;;;;;1.53;100.00;100396.59;4992971;28;20030;-77
2022/03/04 05:11:09;;;;;;;47.40;28.83;;;;;;;1.03;100.00;100366.72;5010651;28;20034;-78
2022/03/04 05:13:34;;;;;;;59.97;28.67;;;;;;;1.20;100.00;100407.78;5010011;28;20025;-77
2022/03/04 05:16:00;;;;;;;54.73;27.97;;;;;;;1.07;100.00;100388.19;4993775;28;20033;-78
2022/03/04 05:18:25;;;;;;;57.37;28.80;;;;;;;1.17;100.00;100407.53;5013715;28;20033;-76
2022/03/04 05:20:51;;;;;;;59.40;29.97;;;;;;;0.91;100.00;100371.81;5012751;28;20049;-77
2022/03/04 05:23:58;;;;;;;61.40;32.47;;;;;;;0.90;100.00;100404.75;5012920;28;20040;-84
2022/03/04 05:26:04;;;;;;;49.30;31.47;;;;;;;1.07;100.00;100423.78;5012218;28;20036;-80
2022/03/04 05:28:29;;;;;;;46.47;30.00;;;;;;;1.07;100.00;100400.88;4979282;28;20049;-80
2022/03/04 05:30:55;;;;;;;52.63;30.40;;;;;;;1.08;100.00;100390.81;5013396;28;20030;-79
2022/03/04 05:33:20;;;;;;;53.27;30.57;;;;;;;1.08;100.00;100403.53;4995814;28;20022;-80
2022/03/04 05:35:45;;;;;;;41.70;26.40;;;;;;;1.07;100.00;100419.59;5012586;28;20021;-80
2022/03/04 05:38:11;;;;;;;41.80;28.13;;;;;;;0.74;100.00;100388.34;5011337;28;20053;-80
2022/03/04 05:40:36;;;;;;;37.33;25.97;;;;;;;0.82;100.00;100403.28;4995192;28;20014;-80
2022/03/04 05:43:02;;;;;;;33.63;21.07;;;;;;;0.84;100.00;100411.91;5012154;28;20022;-78
2022/03/04 05:45:27;;;;;;;31.37;21.53;;;;;;;0.84;100.00;100379.75;5011950;28;20022;-80
2022/03/04 05:47:53;;;;;;;34.83;22.03;;;;;;;1.09;100.00;100414.63;5006237;28;20030;-79
2022/03/04 05:50:18;;;;;;;34.33;21.03;;;;;;;1.17;100.00;100413.50;4993265;28;20022;-78
2022/03/04 05:52:43;;;;;;;36.73;22.87;;;;;;;1.27;100.00;100404.88;4993662;28;20038;-76
2022/03/04 05:55:09;;;;;;;37.47;20.10;;;;;;;1.43;100.00;100397.63;4992472;28;20111;-80
2022/03/04 05:57:34;;;;;;;30.47;20.30;;;;;;;1.75;100.00;100423.59;4986422;28;20057;-77
2022/03/04 06:00:00;;;;;;;29.70;20.60;;;;;;;1.86;100.00;100424.38;4974050;28;20042;-78
2022/03/04 06:02:27;;;;;;;31.67;21.37;;;;;;;1.86;100.00;100411.66;4980645;28;20026;-80
2022/03/04 06:04:53;;;;;;;31.37;22.30;;;;;;;1.88;100.00;100405.88;4999101;28;20031;-78
2022/03/04 06:07:19;;;;;;;33.00;20.53;;;;;;;2.04;100.00;100430.75;4992303;28;20378;-80
2022/03/04 06:09:44;;;;;;;38.00;22.97;;;;;;;2.05;100.00;100424.88;4974952;28;20030;-77
2022/03/04 06:12:10;;;;;;;35.77;22.97;;;;;;;2.21;100.00;100431.94;4991990;28;20038;-78
2022/03/04 06:14:35;;;;;;;56.93;30.47;;;;;;;2.30;100.00;100431.69;5009843;28;20392;-81
2022/03/04 06:17:01;;;;;;;68.00;35.70;;;;;;;2.46;100.00;100436.19;4994828;28;20029;-74
2022/03/04 06:19:26;;;;;;;33.40;21.93;;;;;;;2.65;100.00;100434.91;5011645;28;20026;-78
2022/03/04 06:21:52;;;;;;;31.77;21.73;;;;;;;2.73;100.00;100432.09;5010630;28;20030;-74
2022/03/04 06:24:17;;;;;;;31.00;20.47;;;;;;;2.75;100.00;100416.88;4992750;28;20030;-81
2022/03/04 06:26:43;;;;;;;31.17;20.88;;;;;;;2.96;100.00;100434.41;4987959;28;20030;-76
2022/03/04 06:29:08;;;;;;;27.55;20.05;;;;;;;3.03;100.00;100426.41;4998192;28;20048;-79
2022/03/04 06:31:34;;;;;;;29.48;20.90;;;;;;;3.01;100.00;100413.53;4989912;28;20483;-81
2022/03/04 06:34:02;;;;;;;32.25;18.67;;;;;;;2.92;100.00;100411.25;4975922;28;20030;-80
2022/03/04 06:36:30;;;;;;;31.23;19.95;;;;;;;3.09;100.00;100419.16;4996509;28;20030;-81
2022/03/04 06:38:55;;;;;;;30.27;19.63;;;;;;;3.15;100.00;100422.06;4995858;28;20107;-81
2022/03/04 06:41:21;;;;;;;27.02;18.27;;;;;;;3.28;100.00;100421.22;5005662;28;20694;-79
2022/03/04 06:43:48;;;;;;;28.25;19.70;;;;;;;3.41;100.00;100425.47;5012018;28;20033;-81
2022/03/04 06:46:15;;;;;;;31.00;19.90;;;;;;;3.31;100.00;100393.34;5011957;28;20018;-80
2022/03/04 06:48:40;;;;;;;29.33;19.33;;;;;;;3.49;100.00;100420.84;4994427;28;20021;-80
2022/03/04 06:51:06;;;;;;;35.20;24.13;;;;;;;3.63;100.00;100431.97;4994601;28;20060;-81
2022/03/04 06:53:33;;;;;;;28.88;20.50;;;;;;;3.65;100.00;100436.38;5012081;28;20054;-80
2022/03/04 06:55:58;;;;;;;29.58;20.52;;;;;;;3.63;100.00;100426.88;5012069;28;20136;-81
2022/03/04 06:58:25;;;;;;;28.08;21.25;;;;;;;3.70;100.00;100437.56;5012053;28;20464;-80
2022/03/04 07:00:50;;;;;;;26.60;19.40;;;;;;;3.70;100.00;100426.44;4994386;28;20080;-81
2022/03/04 07:03:16;;;;;;;33.70;19.67;;;;;;;3.77;100.00;100436.25;5012122;28;20033;-80
2022/03/04 07:05:43;;;;;;;28.35;20.52;;;;;;;3.88;100.00;100439.50;5011765;28;20032;-81
2022/03/04 07:08:12;;;;;;;30.38;17.83;;;;;;;3.69;100.00;100400.03;4993937;28;20133;-82
2022/03/04 07:10:44;;;;;;;29.90;20.05;;;;;;;3.89;100.00;100421.72;4994177;28;20052;-81
2022/03/04 07:13:10;;;;;;;38.75;23.35;;;;;;;3.91;100.00;100432.03;5012283;28;20052;-80
2022/03/04 07:15:36;;;;;;;38.15;22.58;;;;;;;3.83;100.00;100429.00;5011747;28;20120;-81
2022/03/04 07:18:03;;;;;;;30.02;20.95;;;;;;;3.76;100.00;100437.03;4994222;28;20455;-80
2022/03/04 07:20:29;;;;;;;49.42;29.40;;;;;;;3.80;100.00;100428.81;4994253;28;20029;-80
2022/03/04 07:22:54;;;;;;;32.15;22.52;;;;;;;3.83;100.00;100433.22;5011693;28;20128;-84
2022/03/04 07:25:20;;;;;;;28.90;19.98;;;;;;;3.76;100.00;100441.28;5003939;28;20030;-81
2022/03/04 07:27:45;;;;;;;29.30;22.23;;;;;;;3.62;100.00;100394.44;4985613;28;20484;-81
2022/03/04 07:30:16;;;;;;;31.83;20.55;;;;;;;3.78;100.00;100403.97;5009991;28;20018;-81
2022/03/04 07:32:43;;;;;;;29.85;20.17;;;;;;;4.00;100.00;100436.81;4992847;28;20116;-81
2022/03/04 07:35:10;;;;;;;29.55;21.17;;;;;;;4.02;99.71;100438.69;5011041;28;20036;-81
2022/03/04 07:37:36;;;;;;;31.08;21.90;;;;;;;4.07;99.34;100430.44;5010608;28;20079;-81
2022/03/04 07:40:06;;;;;;;27.60;20.17;;;;;;;4.16;99.40;100439.56;4993629;28;20121;-80
2022/03/04 07:42:31;;;;;;;32.03;19.17;;;;;;;4.14;98.46;100436.03;5006081;28;20071;-81
2022/03/04 07:44:57;;;;;;;26.98;17.58;;;;;;;4.19;96.88;100431.22;4993814;28;20018;-81
2022/03/04 07:47:22;;;;;;;28.13;19.85;;;;;;;4.32;96.02;100432.84;5010500;28;20077;-82
2022/03/04 07:49:48;;;;;;;25.58;18.77;;;;;;;4.33;97.43;100427.81;4993658;28;20380;-81
2022/03/04 07:52:13;;;;;;;32.13;21.40;;;;;;;4.35;97.34;100421.13;4993683;28;20034;-83
2022/03/04 07:54:39;;;;;;;25.80;19.88;;;;;;;4.59;97.04;100448.13;5011301;28;20108;-83
2022/03/04 07:57:05;;;;;;;28.60;19.55;;;;;;;4.52;96.10;100445.19;5011128;28;20025;-83
2022/03/04 07:59:31;;;;;;;27.63;20.23;;;;;;;4.27;97.01;100427.44;5011337;28;20030;-82
2022/03/04 08:01:56;;;;;;;27.15;19.92;;;;;;;4.50;96.66;100443.31;4993471;28;20091;-83
2022/03/04 08:04:22;;;;;;;26.92;18.00;;;;;;;4.53;96.49;100430.72;4993201;28;20022;-83
2022/03/04 08:06:47;;;;;;;25.42;16.60;;;;;;;4.49;95.79;100421.09;5011059;28;20107;-83
2022/03/04 08:09:13;;;;;;;24.35;17.38;;;;;;;4.64;95.81;100423.69;5011301;28;20026;-83
2022/03/04 08:11:39;;;;;;;22.90;16.98;;;;;;;4.75;94.60;100429.44;4993484;28;20392;-82
2022/03/04 08:14:04;;;;;;;24.77;18.77;;;;;;;4.71;95.15;100420.72;4988577;28;20049;-83
2022/03/04 08:16:29;;;;;;;27.48;18.95;;;;;;;4.49;96.64;100400.66;4988861;28;20045;-83
2022/03/04 08:18:56;;;;;;;23.83;17.27;;;;;;;4.52;96.75;100409.38;4988572;28;20061;-83
2022/03/04 08:21:23;;;;;;;22.52;14.88;;;;;;;4.75;95.58;100442.22;4988762;28;20089;-83
2022/03/04 08:23:49;;;;;;;21.58;13.65;;;;;;;4.65;96.29;100417.78;4988842;28;20116;-83
2022/03/04 08:26:14;;;;;;;19.02;13.38;;;;;;;4.78;95.59;100440.72;4983020;28;20481;-83
2022/03/04 08:28:40;;;;;;;22.60;15.52;;;;;;;4.89;95.93;100441.38;4969370;28;20501;-83
2022/03/04 08:31:10;;;;;;;20.02;13.98;;;;;;;4.98;95.18;100436.78;4969366;28;20031;-83
2022/03/04 08:33:38;;;;;;;21.13;14.45;;;;;;;4.86;95.93;100413.94;4968954;28;20031;-82
2022/03/04 08:36:06;;;;;;;18.23;13.57;;;;;;;5.04;94.66;100427.75;4975107;28;20038;-82
2022/03/04 08:38:32;;;;;;;19.58;14.45;;;;;;;5.12;94.85;100421.38;4956429;28;20124;-82
2022/03/04 08:40:57;;;;;;;17.75;13.85;;;;;;;5.28;94.61;100423.13;4955712;28;20536;-82
2022/03/04 08:43:23;;;;;;;22.10;14.77;;;;;;;5.13;96.07;100405.22;4969222;28;20034;-82
2022/03/04 08:45:48;;;;;;;17.30;12.52;;;;;;;5.28;95.56;100434.28;4994017;28;20034;-82
2022/03/04 08:48:16;;;;;;;18.80;14.35;;;;;;;5.17;95.76;100425.06;5010779;28;20388;-81
2022/03/04 08:50:42;;;;;;;19.77;13.65;;;;;;;5.30;93.44;100431.81;5007455;28;20030;-81
2022/03/04 08:53:08;;;;;;;19.45;14.68;;;;;;;5.34;93.64;100413.25;4996842;28;20168;-82
2022/03/04 08:55:33;;;;;;;17.55;12.43;;;;;;;5.57;94.08;100427.38;4989685;28;20080;-82
2022/03/04 08:58:00;;;;;;;17.63;13.43;;;;;;;5.71;91.70;100419.56;4969781;28;20100;-81
2022/03/04 09:00:28;;;;;;;18.60;14.15;;;;;;;5.74;93.83;100414.63;4989167;28;20045;-82
2022/03/04 09:06:15;;;;;;;18.48;12.60;;;;;;;5.66;92.52;100407.38;5088873;22;20060;-82
2022/03/04 09:08:40;;;;;;;20.20;13.73;;;;;;;5.78;93.54;100402.06;5014243;28;20014;-81
2022/03/04 09:11:06;;;;;;;17.48;12.85;;;;;;;5.59;92.34;100369.41;5014307;28;20033;-80
2022/03/04 09:13:35;;;;;;;20.25;15.10;;;;;;;5.97;92.87;100416.75;5014299;28;20030;-83
2022/03/04 09:16:01;;;;;;;26.02;22.98;;;;;;;6.02;91.52;100400.78;5014155;28;20090;-81
2022/03/04 09:18:30;;;;;;;17.92;13.52;;;;;;;6.12;93.90;100405.63;4996450;28;20030;-81
2022/03/04 09:20:55;;;;;;;19.90;14.38;;;;;;;6.15;92.03;100408.34;5016548;28;20032;-83
2022/03/04 09:23:21;;;;;;;16.05;12.77;;;;;;;5.99;91.52;100394.72;5005662;28;20384;-82
2022/03/04 09:25:48;;;;;;;21.38;15.05;;;;;;;6.13;92.42;100404.78;5022213;28;20033;-82
2022/03/04 09:28:15;;;;;;;23.55;15.25;;;;;;;6.15;93.23;100398.09;5010623;28;20454;-79
2022/03/04 09:30:41;;;;;;;19.95;15.02;;;;;;;6.10;93.82;100377.31;5013517;28;20013;-81
2022/03/04 09:33:06;;;;;;;18.40;14.23;;;;;;;6.39;90.25;100395.06;4976347;28;20498;-80
2022/03/04 09:35:32;;;;;;;18.85;13.68;;;;;;;6.36;93.92;100393.22;5016088;28;20096;-83
2022/03/04 09:41:19;;;;;;;21.70;15.38;;;;;;;6.72;90.50;100393.34;5009471;28;20555;-82
2022/03/04 09:43:46;;;;;;;17.45;13.88;;;;;;;6.90;90.62;100388.28;4995490;28;20033;-84
2022/03/04 09:46:12;;;;;;;18.77;13.60;;;;;;;6.83;88.84;100393.91;5011779;28;20124;-82
2022/03/04 09:48:42;;;;;;;17.63;12.48;;;;;;;7.05;90.58;100389.84;5016008;28;20022;-83
2022/03/04 09:51:10;;;;;;;16.42;12.63;;;;;;;6.93;88.80;100385.00;5005493;28;20121;-82
2022/03/04 09:53:36;;;;;;;17.55;12.82;;;;;;;6.95;87.67;100371.44;5022939;28;20025;-78
2022/03/04 09:56:02;;;;;;;17.33;12.60;;;;;;;7.25;88.57;100390.81;5017977;28;20041;-81
2022/03/04 09:58:27;;;;;;;15.55;11.88;;;;;;;7.25;85.89;100360.91;5014547;28;20048;-85
2022/03/04 10:00:53;;;;;;;15.98;11.95;;;;;;;7.44;86.80;100384.91;5032415;28;20022;-85
2022/03/04 10:03:21;;;;;;;20.25;14.75;;;;;;;7.52;85.84;100352.75;4990238;28;20042;-83
2022/03/04 10:05:54;;;;;;;19.35;13.68;;;;;;;7.93;85.80;100374.34;4990260;28;20564;-79
2022/03/04 10:08:20;;;;;;;17.95;13.38;;;;;;;8.03;85.13;100351.66;4977119;28;20046;-83
2022/03/04 10:10:50;;;;;;;20.42;13.88;;;;;;;8.14;84.38;100360.72;4990539;28;20030;-82
2022/03/04 10:13:16;;;;;;;17.63;12.77;;;;;;;8.49;82.21;100376.00;4969769;28;20086;-78
2022/03/04 10:15:54;;;;;;;16.45;10.75;;;;;;;8.53;80.93;100363.31;4970025;28;20469;-78
2022/03/04 10:18:26;;;;;;;17.83;12.75;;;;;;;8.40;82.10;100371.31;4973891;28;20142;-79
2022/03/04 10:20:51;;;;;;;19.40;12.05;;;;;;;8.39;81.49;100361.81;4983746;28;20532;-80
2022/03/04 10:23:25;;;;;;;19.75;14.13;;;;;;;8.63;81.45;100346.59;4986381;28;20047;-79
2022/03/04 10:25:53;;;;;;;16.73;12.23;;;;;;;9.04;79.68;100364.59;4952464;28;20529;-84
2022/03/04 10:28:23;;;;;;;18.02;12.43;;;;;;;9.18;78.98;100358.34;4953475;28;20089;-77
2022/03/04 10:30:50;;;;;;;17.08;13.15;;;;;;;9.22;78.53;100354.16;4970270;28;20039;-79
2022/03/04 10:33:21;;;;;;;16.17;12.23;;;;;;;9.31;79.65;100345.91;4954993;28;20548;-82
2022/03/04 10:36:05;;;;;;;28.27;19.67;;;;;;;9.56;77.34;100355.53;4997673;28;20480;-80
2022/03/04 10:38:31;;;;;;;13.63;11.27;;;;;;;9.79;75.68;100348.66;5011874;28;20076;-82
2022/03/04 10:40:56;;;;;;;14.75;10.75;;;;;;;9.76;77.53;100327.94;5009421;28;20480;-81
2022/03/04 10:43:30;;;;;;;15.05;10.77;;;;;;;9.92;77.17;100342.28;5002676;28;20072;-85
2022/03/04 10:46:00;;;;;;;20.70;14.27;;;;;;;9.95;77.99;100344.97;5012082;28;20497;-82
2022/03/04 10:48:26;;;;;;;15.73;11.82;;;;;;;9.67;79.27;100287.22;5012155;28;20399;-80
2022/03/04 10:50:54;;;;;;;14.90;11.05;;;;;;;9.96;75.61;100341.56;5010734;28;20022;-81
2022/03/04 10:53:28;;;;;;;13.02;10.88;;;;;;;9.95;75.90;100334.63;5012067;28;20017;-79
2022/03/04 10:55:58;;;;;;;17.38;13.00;;;;;;;9.97;75.03;100319.22;5012193;28;20022;-83
2022/03/04 10:58:28;;;;;;;13.15;10.40;;;;;;;10.07;75.35;100328.19;5011953;28;20026;-82
2022/03/04 11:00:59;;;;;;;13.70;10.82;;;;;;;10.29;72.83;100329.84;5009813;28;20022;-83
2022/03/04 11:03:32;;;;;;;12.98;9.55;;;;;;;10.34;73.98;100320.56;4983258;28;20026;-85
2022/03/04 11:06:00;;;;;;;12.60;9.65;;;;;;;9.95;74.25;100297.69;5003993;28;20050;-82
2022/03/04 11:08:26;;;;;;;11.70;9.10;;;;;;;9.51;73.19;100262.56;5003735;28;20080;-79
2022/03/04 11:10:53;;;;;;;11.80;8.57;;;;;;;9.39;74.76;100291.31;4998631;28;20026;-77
2022/03/04 11:13:19;;;;;;;12.75;9.40;;;;;;;9.44;74.40;100295.78;4994734;28;20036;-82
2022/03/04 11:15:46;;;;;;;9.57;8.50;;;;;;;9.50;70.13;100301.16;5011840;28;20124;-83